Time;durP1;ratioP1;P1;durP2;ratioP2;P2;SDS_P1;SDS_P2;PMS_P1;PMS_P2;Temp;Humidity;BMP_temperature;BMP_pressure;BME280_temperature;BME280_humidity;BME280_pressure;Samples;Min_cycle;Max_cycle;Signal;HPM_P1;HPM_P2
2023/09/21 00:01:34;;;;;;;5.00;3.90;;;;;;;12.89;100.00;97475.09;110094;1244;58955;-61
2023/09/21 00:04:07;;;;;;;4.80;3.90;;;;;;;12.86;100.00;97482.52;110152;1241;58858;-60
2023/09/21 00:06:41;;;;;;;4.70;3.50;;;;;;;12.82;100.00;97482.15;110156;1241;70454;-60
2023/09/21 00:09:14;;;;;;;3.90;2.70;;;;;;;12.78;100.00;97480.87;110150;1244;69075;-60
2023/09/21 00:11:46;;;;;;;4.30;3.30;;;;;;;12.74;100.00;97481.88;110126;1243;69176;-60
2023/09/21 00:14:17;;;;;;;4.50;3.50;;;;;;;12.69;100.00;97483.83;109802;1244;58923;-61
2023/09/21 00:16:49;;;;;;;5.20;3.30;;;;;;;12.64;100.00;97480.27;110101;1244;58842;-62
2023/09/21 00:19:26;;;;;;;4.60;3.10;;;;;;;12.58;100.00;97480.71;110128;1241;69759;-61
2023/09/21 00:22:04;;;;;;;3.70;2.90;;;;;;;12.55;100.00;97480.98;110107;1243;69264;-61
2023/09/21 00:24:35;;;;;;;3.20;2.90;;;;;;;12.51;100.00;97477.95;110119;1244;68489;-61
2023/09/21 00:27:06;;;;;;;3.50;2.90;;;;;;;12.48;100.00;97479.27;110124;1241;58875;-60
2023/09/21 00:29:39;;;;;;;3.70;3.20;;;;;;;12.46;100.00;97476.81;110109;1245;58881;-60
2023/09/21 00:32:09;;;;;;;4.50;3.90;;;;;;;12.43;100.00;97478.94;109880;1241;69444;-61
2023/09/21 00:34:40;;;;;;;5.80;3.50;;;;;;;12.40;100.00;97475.55;110084;1243;69246;-60
2023/09/21 00:37:11;;;;;;;;;;;;;;;12.37;100.00;97471.23;109782;1241;68360;-61
2023/09/21 00:39:41;;;;;;;3.80;2.90;;;;;;;12.33;100.00;97470.83;110127;1241;58942;-60
2023/09/21 00:42:12;;;;;;;3.10;2.40;;;;;;;12.31;100.00;97472.07;109858;1244;58967;-61
2023/09/21 00:44:45;;;;;;;5.20;2.50;;;;;;;12.30;100.00;97471.98;110163;1241;70537;-60
2023/09/21 00:47:17;;;;;;;3.70;2.70;;;;;;;12.28;100.00;97469.13;110147;1244;69368;-61
2023/09/21 00:49:49;;;;;;;3.90;2.60;;;;;;;12.27;100.00;97471.15;110141;1244;69314;-61
2023/09/21 00:52:20;;;;;;;4.60;3.40;;;;;;;12.22;100.00;97468.85;110090;1241;58859;-62
2023/09/21 00:54:51;;;;;;;5.40;3.30;;;;;;;12.13;100.00;97465.95;110120;1244;58873;-61
2023/09/21 00:57:22;;;;;;;3.70;3.10;;;;;;;12.04;100.00;97468.91;110131;1243;70422;-61
2023/09/21 00:59:53;;;;;;;4.00;3.20;;;;;;;11.97;100.00;97469.46;110158;1244;69273;-61
2023/09/21 01:02:24;;;;;;;4.10;3.30;;;;;;;11.92;100.00;97473.48;110157;1243;69359;-61
2023/09/21 01:04:58;;;;;;;3.90;2.90;;;;;;;11.92;100.00;97471.40;109950;1244;58950;-61
2023/09/21 01:07:29;;;;;;;3.50;2.60;;;;;;;11.92;100.00;97472.60;110088;1244;58893;-60
2023/09/21 01:09:59;;;;;;;4.30;3.10;;;;;;;11.88;100.00;97470.81;110133;1244;69819;-59
2023/09/21 01:12:33;;;;;;;3.30;2.90;;;;;;;11.86;100.00;97469.62;110093;1242;69639;-61
2023/09/21 01:15:05;;;;;;;3.90;3.00;;;;;;;11.84;100.00;97465.06;110062;1243;69688;-60
2023/09/21 01:17:44;;;;;;;4.60;3.10;;;;;;;11.82;100.00;97464.30;110146;1244;58948;-60
2023/09/21 01:22:57;;;;;;;4.20;3.20;;;;;;;11.80;100.00;97458.21;110090;1243;69895;-61
2023/09/21 01:25:28;;;;;;;3.90;3.40;;;;;;;11.76;100.00;97455.54;110107;1244;68583;-60
2023/09/21 01:27:59;;;;;;;4.90;3.20;;;;;;;11.74;100.00;97450.58;110126;1243;68399;-61
2023/09/21 01:30:30;;;;;;;5.90;3.80;;;;;;;11.72;100.00;97448.43;110120;1244;58941;-60
2023/09/21 01:33:04;;;;;;;5.40;4.20;;;;;;;11.69;100.00;97448.17;110137;1244;58903;-60
2023/09/21 01:35:36;;;;;;;5.80;4.50;;;;;;;11.68;100.00;97447.35;110131;1244;68931;-61
2023/09/21 01:38:06;;;;;;;5.40;4.10;;;;;;;11.69;100.00;97445.75;110120;1244;69221;-60
2023/09/21 01:40:38;;;;;;;4.30;3.90;;;;;;;11.67;100.00;97443.98;110121;1243;68724;-60
2023/09/21 01:43:08;;;;;;;;;;;;;;;11.67;100.00;97442.08;110129;1244;58870;-60
2023/09/21 01:45:42;;;;;;;5.90;4.40;;;;;;;11.64;100.00;97444.21;109890;1245;58909;-60
2023/09/21 01:48:15;;;;;;;4.10;3.70;;;;;;;11.60;100.00;97445.02;110097;1244;69996;-61
2023/09/21 01:50:48;;;;;;;4.60;3.30;;;;;;;11.55;100.00;97442.44;110146;1244;69251;-61
2023/09/21 01:53:23;;;;;;;3.60;2.80;;;;;;;11.50;100.00;97439.84;110113;1241;68568;-60
2023/09/21 01:55:54;;;;;;;4.50;3.00;;;;;;;11.45;100.00;97434.98;110136;1242;58865;-61
2023/09/21 01:58:24;;;;;;;3.70;2.70;;;;;;;11.42;100.00;97436.58;110097;1244;58884;-60
2023/09/21 02:00:56;;;;;;;3.90;2.90;;;;;;;11.40;100.00;97436.05;110141;1242;70532;-61
2023/09/21 02:03:31;;;;;;;2.70;2.40;;;;;;;11.37;100.00;97433.01;110169;1244;69211;-61
2023/09/21 02:06:02;;;;;;;2.80;2.30;;;;;;;11.35;100.00;97431.55;110133;1242;68466;-60
2023/09/21 02:08:34;;;;;;;2.80;2.00;;;;;;;11.34;100.00;97435.01;110152;1244;58887;-60
2023/09/21 02:11:06;;;;;;;3.00;2.30;;;;;;;11.33;100.00;97435.59;110127;1241;58865;-59
2023/09/21 02:13:37;;;;;;;2.60;2.10;;;;;;;11.31;100.00;97436.24;110122;1244;70997;-60
2023/09/21 02:16:09;;;;;;;2.60;2.00;;;;;;;11.31;100.00;97435.55;110011;1247;68735;-60
2023/09/21 02:18:40;;;;;;;3.50;2.30;;;;;;;11.30;100.00;97434.39;109820;1244;67509;-60
2023/09/21 02:21:12;;;;;;;3.70;2.60;;;;;;;11.29;100.00;97433.47;110145;1241;58901;-61
2023/09/21 02:23:43;;;;;;;3.30;2.60;;;;;;;11.26;100.00;97428.45;110145;1244;58845;-60
2023/09/21 02:26:17;;;;;;;3.50;3.00;;;;;;;11.21;100.00;97432.09;110129;1243;70630;-60
2023/09/21 02:28:48;;;;;;;5.00;2.70;;;;;;;11.18;100.00;97431.97;110145;1241;69885;-60
2023/09/21 02:31:21;;;;;;;5.70;2.80;;;;;;;11.16;100.00;97429.17;110029;1245;69866;-60
2023/09/21 02:33:55;;;;;;;3.30;2.50;;;;;;;11.14;100.00;97430.15;110134;1245;58956;-62
2023/09/21 02:36:25;;;;;;;4.20;3.20;;;;;;;11.15;100.00;97425.94;109970;1244;58887;-61
2023/09/21 02:38:56;;;;;;;3.40;2.50;;;;;;;11.11;100.00;97425.66;110073;1243;70437;-62
2023/09/21 02:41:29;;;;;;;2.90;2.50;;;;;;;11.10;100.00;97422.65;109917;1245;69463;-60
2023/09/21 02:44:04;;;;;;;3.30;2.30;;;;;;;11.08;100.00;97419.61;110116;1243;68515;-62
2023/09/21 02:46:34;;;;;;;3.90;3.40;;;;;;;11.09;100.00;97418.38;110083;1241;58969;-62
2023/09/21 02:49:07;;;;;;;5.10;4.00;;;;;;;11.10;100.00;97413.91;110153;1243;58861;-60
2023/09/21 02:51:41;;;;;;;4.80;3.40;;;;;;;11.13;100.00;97418.73;110119;1243;70600;-60
2023/09/21 02:54:13;;;;;;;3.10;2.60;;;;;;;11.16;100.00;97415.02;110126;1241;68919;-63
2023/09/21 02:56:45;;;;;;;4.00;3.20;;;;;;;11.18;100.00;97419.41;110078;1243;68442;-60
2023/09/21 02:59:17;;;;;;;4.30;3.60;;;;;;;11.15;100.00;97415.63;109927;1246;58955;-62
2023/09/21 03:01:47;;;;;;;4.20;3.70;;;;;;;11.13;100.00;97419.44;110156;1244;59184;-60
2023/09/21 03:04:18;;;;;;;4.70;3.40;;;;;;;11.10;100.00;97422.62;110094;1241;70963;-60
2023/09/21 03:06:52;;;;;;;4.70;3.70;;;;;;;11.08;100.00;97422.27;109985;1244;69250;-61
2023/09/21 03:09:23;;;;;;;3.80;3.00;;;;;;;11.04;100.00;97422.59;110115;1241;68598;-60
2023/09/21 03:11:53;;;;;;;3.40;3.10;;;;;;;10.99;100.00;97422.98;110102;1243;58946;-61
2023/09/21 03:14:25;;;;;;;3.20;2.90;;;;;;;10.95;100.00;97432.80;109856;1245;59341;-60
2023/09/21 03:16:57;;;;;;;3.60;2.70;;;;;;;10.92;100.00;97427.59;109850;1241;70717;-61
2023/09/21 03:19:29;;;;;;;3.00;2.60;;;;;;;10.92;100.00;97427.79;110132;1243;68426;-61
2023/09/21 03:21:59;;;;;;;;;;;;;;;10.92;100.00;97431.77;110151;1243;69735;-61
2023/09/21 03:24:29;;;;;;;;;;;;;;;10.92;100.00;97428.48;109876;1243;58898;-61
2023/09/21 03:26:59;;;;;;;4.70;2.90;;;;;;;10.93;100.00;97426.81;109997;1241;58898;-60
2023/09/21 03:29:29;;;;;;;4.00;3.00;;;;;;;10.90;100.00;97427.78;110157;1244;70199;-60
2023/09/21 03:31:59;;;;;;;2.60;2.00;;;;;;;10.88;100.00;97430.36;109988;1244;69288;-61
2023/09/21 03:34:29;;;;;;;3.10;2.40;;;;;;;10.89;100.00;97428.41;110126;1244;69883;-61
2023/09/21 03:37:01;;;;;;;2.50;2.20;;;;;;;10.91;100.00;97429.11;109974;1245;58920;-62
2023/09/21 03:39:32;;;;;;;3.10;2.50;;;;;;;10.91;100.00;97431.04;110136;1243;58935;-61
2023/09/21 03:42:03;;;;;;;2.80;2.20;;;;;;;10.87;100.00;97431.15;110153;1244;69707;-61
2023/09/21 03:44:33;;;;;;;3.10;2.50;;;;;;;10.86;100.00;97432.27;109958;1241;69405;-60
2023/09/21 03:47:03;;;;;;;;;;;;;;;10.86;100.00;97431.77;110172;1244;69351;-59
2023/09/21 03:49:34;;;;;;;2.80;2.40;;;;;;;10.86;100.00;97433.84;110136;1244;58858;-60
2023/09/21 03:52:05;;;;;;;2.80;2.50;;;;;;;10.84;100.00;97434.48;110156;1244;58831;-60
2023/09/21 03:54:36;;;;;;;4.00;3.00;;;;;;;10.83;100.00;97434.05;110124;1241;69877;-62
2023/09/21 03:57:08;;;;;;;3.20;2.40;;;;;;;10.83;100.00;97430.77;109912;1245;69366;-60
2023/09/21 03:59:39;;;;;;;5.70;4.60;;;;;;;10.81;100.00;97433.53;110126;1241;68483;-60
2023/09/21 04:02:09;;;;;;;4.30;3.60;;;;;;;10.71;100.00;97432.48;109994;1245;58940;-60
2023/09/21 04:04:40;;;;;;;4.10;3.20;;;;;;;10.62;100.00;97432.45;110023;1244;58889;-60
2023/09/21 04:07:12;;;;;;;4.80;3.10;;;;;;;10.53;100.00;97432.27;110185;1243;70391;-60
2023/09/21 04:09:42;;;;;;;4.20;3.30;;;;;;;10.43;100.00;97435.02;109991;1246;68584;-60
2023/09/21 04:12:15;;;;;;;4.40;3.30;;;;;;;10.37;100.00;97436.35;110125;1244;69451;-60
2023/09/21 04:14:46;;;;;;;4.20;3.20;;;;;;;10.32;100.00;97432.15;110115;1244;58939;-60
2023/09/21 04:17:16;;;;;;;4.40;3.00;;;;;;;10.29;100.00;97433.29;110089;1241;58865;-60
2023/09/21 04:19:45;;;;;;;3.40;3.00;;;;;;;10.27;100.00;97434.63;110151;1242;69539;-61
2023/09/21 04:22:15;;;;;;;4.10;3.10;;;;;;;10.27;100.00;97431.85;109891;1245;69939;-61
2023/09/21 04:24:46;;;;;;;3.90;3.10;;;;;;;10.30;100.00;97428.69;109984;1244;69615;-61
2023/09/21 04:27:16;;;;;;;;;;;;;;;10.34;100.00;97425.61;110143;1243;58922;-61
2023/09/21 04:29:48;;;;;;;3.90;3.10;;;;;;;10.41;100.00;97417.91;110107;1244;58942;-61
2023/09/21 04:32:19;;;;;;;3.90;3.30;;;;;;;10.54;100.00;97418.04;109842;1245;69660;-62
2023/09/21 04:34:48;;;;;;;4.10;2.90;;;;;;;10.68;100.00;97417.20;109939;1244;68439;-62
2023/09/21 04:37:18;;;;;;;;;;;;;;;10.86;100.00;97415.49;110005;1243;68836;-62
2023/09/21 04:39:50;;;;;;;5.40;3.40;;;;;;;10.94;100.00;97415.14;109809;1244;58900;-62
2023/09/21 04:42:19;;;;;;;5.40;3.80;;;;;;;11.03;100.00;97416.70;110102;1243;58839;-63
2023/09/21 04:44:49;;;;;;;;;;;;;;;11.18;100.00;97418.56;110130;1244;70555;-63
2023/09/21 04:47:19;;;;;;;4.30;3.10;;;;;;;11.38;100.00;97426.47;109857;1246;69352;-61
2023/09/21 04:49:48;;;;;;;3.70;2.90;;;;;;;11.64;100.00;97427.77;109802;1243;68559;-60
2023/09/21 04:52:18;;;;;;;3.40;2.80;;;;;;;11.83;100.00;97428.09;110090;1243;58936;-61
2023/09/21 04:54:54;;;;;;;5.20;2.90;;;;;;;12.00;100.00;97423.14;109925;1245;58872;-60
2023/09/21 04:57:27;;;;;;;3.10;2.80;;;;;;;12.29;100.00;97424.46;110116;1243;70464;-61
2023/09/21 04:59:59;;;;;;;5.90;2.60;;;;;;;12.55;100.00;97422.41;110125;1241;69781;-61
2023/09/21 05:02:30;;;;;;;5.90;3.20;;;;;;;12.67;100.00;97420.21;109765;1242;68635;-61
2023/09/21 05:05:00;;;;;;;6.90;3.60;;;;;;;12.78;100.00;97424.58;109901;1244;58904;-60
2023/09/21 05:07:30;;;;;;;4.20;2.90;;;;;;;12.93;100.00;97424.37;110013;1241;58868;-60
2023/09/21 05:10:00;;;;;;;4.70;3.70;;;;;;;12.96;100.00;97419.59;109903;1241;70255;-61
2023/09/21 05:12:30;;;;;;;4.50;3.00;;;;;;;12.99;100.00;97421.95;109947;1241;69178;-61
2023/09/21 05:15:00;;;;;;;5.00;3.30;;;;;;;13.01;100.00;97416.42;110081;1242;69824;-61
2023/09/21 05:17:31;;;;;;;5.50;3.70;;;;;;;13.21;100.00;97416.14;110070;1244;58906;-60
2023/09/21 05:20:01;;;;;;;4.60;2.80;;;;;;;13.42;100.00;97415.44;110133;1244;58939;-60
2023/09/21 05:22:30;;;;;;;4.50;2.80;;;;;;;13.72;100.00;97415.54;110134;1243;71189;-60
2023/09/21 05:25:00;;;;;;;3.70;2.50;;;;;;;13.99;100.00;97415.63;110112;1243;69706;-61
2023/09/21 05:27:30;;;;;;;3.60;2.40;;;;;;;14.26;100.00;97412.98;110079;1243;69729;-63
2023/09/21 05:30:01;;;;;;;;;;;;;;;14.59;100.00;97405.35;110139;1243;58905;-60
2023/09/21 05:32:32;;;;;;;5.90;2.80;;;;;;;14.88;100.00;97404.15;110123;1241;58951;-61
2023/09/21 05:35:06;;;;;;;3.40;2.60;;;;;;;15.38;100.00;97403.61;110107;1243;70684;-60
2023/09/21 05:37:36;;;;;;;2.70;2.40;;;;;;;15.72;100.00;97405.90;110151;1243;68118;-61
2023/09/21 05:40:06;;;;;;;;;;;;;;;15.97;100.00;97405.68;110145;1243;69334;-61
2023/09/21 05:42:36;;;;;;;3.60;2.90;;;;;;;16.18;100.00;97407.32;110129;1244;59003;-62
2023/09/21 05:45:06;;;;;;;4.90;2.80;;;;;;;16.58;100.00;97406.23;110121;1244;59319;-61
2023/09/21 05:47:37;;;;;;;3.50;2.90;;;;;;;16.81;99.97;97404.58;110137;1243;69766;-61
2023/09/21 05:50:08;;;;;;;4.10;2.90;;;;;;;17.05;99.08;97406.61;110101;1243;69334;-61
2023/09/21 05:52:37;;;;;;;3.90;2.30;;;;;;;17.32;100.00;97408.14;110077;1244;69226;-61
2023/09/21 05:55:11;;;;;;;3.60;2.80;;;;;;;17.51;97.65;97410.36;110128;1241;58933;-61
2023/09/21 05:57:40;;;;;;;5.70;2.50;;;;;;;17.79;99.30;97411.19;110124;1243;58855;-60
2023/09/21 06:00:10;;;;;;;7.00;4.60;;;;;;;18.06;98.08;97412.98;110138;1243;71213;-61
2023/09/21 06:02:40;;;;;;;4.70;3.10;;;;;;;18.03;97.16;97409.73;110121;1244;69579;-61
2023/09/21 06:05:10;;;;;;;3.60;2.50;;;;;;;18.24;94.62;97410.57;110084;1244;69246;-61
2023/09/21 06:07:39;;;;;;;4.00;3.00;;;;;;;18.37;89.40;97405.89;110135;1243;59001;-61
2023/09/21 06:10:09;;;;;;;4.40;2.50;;;;;;;18.39;86.51;97403.78;110078;1244;59024;-61
2023/09/21 06:12:39;;;;;;;4.70;3.10;;;;;;;18.50;86.49;97402.79;110092;1241;71238;-61
2023/09/21 06:15:09;;;;;;;;;;;;;;;18.51;86.92;97401.71;110112;1244;69832;-61
2023/09/21 06:17:40;;;;;;;3.70;2.40;;;;;;;18.53;85.95;97397.30;110090;1244;69100;-61
2023/09/21 06:20:09;;;;;;;4.00;2.70;;;;;;;18.88;87.10;97396.40;110109;1241;58948;-61
2023/09/21 06:22:39;;;;;;;3.90;2.70;;;;;;;19.03;85.00;97393.22;110119;1241;58950;-61
2023/09/21 06:25:10;;;;;;;5.70;3.30;;;;;;;19.18;86.05;97392.27;110117;1243;69688;-60
2023/09/21 06:27:41;;;;;;;7.20;3.00;;;;;;;19.20;85.02;97389.96;110106;1244;69852;-61
2023/09/21 06:30:11;;;;;;;5.80;2.70;;;;;;;19.37;85.25;97386.37;110126;1243;69262;-61
2023/09/21 06:32:41;;;;;;;6.00;2.70;;;;;;;19.42;82.15;97382.75;110109;1242;58888;-62
2023/09/21 06:35:14;;;;;;;4.20;2.60;;;;;;;19.43;81.48;97385.20;110101;1243;58924;-61
2023/09/21 06:37:43;;;;;;;4.40;2.60;;;;;;;19.75;79.98;97382.68;110113;1243;70576;-62
2023/09/21 06:40:13;;;;;;;5.30;2.40;;;;;;;20.00;78.07;97384.87;110146;1243;69265;-61
2023/09/21 06:42:42;;;;;;;4.70;2.50;;;;;;;20.30;78.52;97384.41;110091;1243;69858;-60
2023/09/21 06:45:12;;;;;;;4.20;2.40;;;;;;;20.60;79.41;97384.84;110090;1244;58901;-61
2023/09/21 06:47:42;;;;;;;5.70;3.40;;;;;;;20.54;76.17;97385.20;110084;1241;58868;-61
2023/09/21 06:50:12;;;;;;;5.00;2.10;;;;;;;20.67;76.22;97386.90;110093;1243;71343;-61
2023/09/21 06:52:41;;;;;;;3.60;2.00;;;;;;;20.75;74.56;97387.20;110090;1244;68818;-63
2023/09/21 06:55:14;;;;;;;3.80;2.10;;;;;;;20.93;73.48;97390.30;110086;1241;69781;-60
2023/09/21 06:57:44;;;;;;;2.10;1.60;;;;;;;21.44;72.75;97390.92;110108;1241;58856;-62
2023/09/21 07:00:15;;;;;;;2.70;1.70;;;;;;;21.57;69.48;97390.66;110141;1244;58877;-61
2023/09/21 07:02:46;;;;;;;2.30;1.50;;;;;;;22.03;69.44;97392.27;110167;1241;70549;-62
2023/09/21 07:05:15;;;;;;;2.40;1.90;;;;;;;22.38;67.63;97396.55;110143;1243;69244;-59
2023/09/21 07:07:46;;;;;;;3.60;1.80;;;;;;;22.52;66.81;97398.23;110103;1244;69280;-62
2023/09/21 07:10:16;;;;;;;3.20;1.50;;;;;;;22.43;64.68;97398.80;110053;1243;58875;-60
2023/09/21 07:12:46;;;;;;;2.80;1.60;;;;;;;22.84;67.22;97393.77;110253;1241;58916;-61
2023/09/21 07:15:18;;;;;;;3.70;1.70;;;;;;;23.19;64.88;97391.58;110198;1244;69943;-62
2023/09/21 07:17:48;;;;;;;3.30;2.10;;;;;;;23.32;62.69;97388.99;110129;1243;69399;-61
2023/09/21 07:20:23;;;;;;;3.30;2.00;;;;;;;23.34;61.81;97387.41;110030;1243;69088;-61
2023/09/21 07:22:53;;;;;;;7.40;2.60;;;;;;;23.00;61.92;97389.92;110130;1241;58879;-62
2023/09/21 07:25:27;;;;;;;3.60;2.00;;;;;;;23.14;61.28;97387.55;110151;1244;58841;-61
2023/09/21 07:27:57;;;;;;;2.80;1.80;;;;;;;23.03;61.37;97391.44;110138;1241;70564;-62
2023/09/21 07:30:28;;;;;;;3.80;2.30;;;;;;;23.29;60.95;97386.41;110171;1244;69620;-62
2023/09/21 07:33:00;;;;;;;4.10;1.80;;;;;;;23.37;60.63;97385.31;110154;1243;69264;-62
2023/09/21 07:35:31;;;;;;;2.50;1.70;;;;;;;23.15;60.17;97385.84;110111;1243;58939;-60
2023/09/21 07:38:02;;;;;;;2.40;1.60;;;;;;;23.51;59.71;97383.64;110112;1244;58931;-61
2023/09/21 07:40:31;;;;;;;3.10;1.60;;;;;;;24.31;57.31;97382.30;110133;1243;71151;-61
2023/09/21 07:43:01;;;;;;;3.30;1.90;;;;;;;24.65;56.21;97380.66;110129;1243;69846;-61
2023/09/21 07:45:31;;;;;;;2.80;1.80;;;;;;;25.02;54.21;97379.41;110091;1244;69750;-62
2023/09/21 07:48:00;;;;;;;2.50;1.60;;;;;;;25.50;53.73;97373.31;110147;1244;58895;-60
2023/09/21 07:50:34;;;;;;;2.60;1.90;;;;;;;25.70;51.33;97374.86;110081;1243;58893;-61
2023/09/21 07:53:04;;;;;;;4.90;2.00;;;;;;;26.25;51.76;97377.95;110125;1244;71078;-61
2023/09/21 07:55:35;;;;;;;4.30;2.00;;;;;;;26.16;50.26;97375.92;110128;1244;69811;-61
2023/09/21 07:58:05;;;;;;;4.10;1.70;;;;;;;26.06;51.15;97371.91;110142;1243;69090;-62
2023/09/21 08:00:34;;;;;;;2.20;1.50;;;;;;;25.83;52.05;97373.01;110134;1243;58938;-62
2023/09/21 08:03:04;;;;;;;3.10;1.70;;;;;;;26.18;52.56;97371.18;110108;1243;58953;-62
2023/09/21 08:05:34;;;;;;;2.50;1.60;;;;;;;26.60;50.64;97366.48;110087;1244;68716;-62
2023/09/21 08:08:05;;;;;;;2.80;1.60;;;;;;;27.20;49.63;97359.39;110134;1244;69214;-63
2023/09/21 08:10:35;;;;;;;2.70;1.50;;;;;;;27.80;48.13;97358.55;110012;1244;68591;-62
2023/09/21 08:13:05;;;;;;;2.90;1.40;;;;;;;28.12;46.43;97355.01;109972;1244;58955;-62
2023/09/21 08:15:37;;;;;;;2.80;1.50;;;;;;;28.69;46.19;97359.10;109953;1244;60415;-63
2023/09/21 08:18:10;;;;;;;2.70;1.60;;;;;;;28.70;44.82;97357.17;110080;1241;70989;-62
2023/09/21 08:20:39;;;;;;;2.70;1.40;;;;;;;29.21;43.63;97352.19;110186;1243;69707;-62
2023/09/21 08:23:09;;;;;;;1.90;1.40;;;;;;;29.64;43.48;97348.27;110134;1244;69808;-62
2023/09/21 08:25:39;;;;;;;2.20;1.30;;;;;;;30.11;43.39;97341.67;110158;1241;58945;-63
2023/09/21 08:28:09;;;;;;;2.00;1.30;;;;;;;29.94;41.19;97339.98;110164;1243;58888;-62
2023/09/21 08:30:38;;;;;;;2.30;1.50;;;;;;;29.71;41.74;97341.08;110149;1241;71072;-60
2023/09/21 08:33:08;;;;;;;2.30;1.70;;;;;;;30.17;41.82;97338.45;110173;1243;69232;-62
2023/09/21 08:35:40;;;;;;;3.60;1.60;;;;;;;29.82;42.15;97337.58;110123;1244;68542;-61
2023/09/21 08:38:10;;;;;;;2.50;1.60;;;;;;;30.38;40.84;97338.34;110183;1244;58876;-61
2023/09/21 08:40:46;;;;;;;2.50;1.30;;;;;;;30.25;41.20;97335.32;110169;1241;58950;-62
2023/09/21 08:43:24;;;;;;;1.60;1.40;;;;;;;30.65;41.35;97336.76;110032;1244;71192;-62
2023/09/21 08:45:55;;;;;;;2.00;1.00;;;;;;;31.04;39.66;97327.54;110051;1244;69678;-61
2023/09/21 08:48:28;;;;;;;1.30;1.20;;;;;;;31.38;39.31;97318.83;110102;1241;69627;-62
2023/09/21 08:51:01;;;;;;;1.90;1.20;;;;;;;31.47;38.04;97312.14;110130;1241;58902;-61
2023/09/21 08:53:33;;;;;;;2.20;1.40;;;;;;;31.29;38.64;97312.30;109962;1243;58939;-62
2023/09/21 08:56:03;;;;;;;2.20;1.30;;;;;;;31.74;38.03;97311.41;109965;1243;71031;-62
2023/09/21 08:58:37;;;;;;;1.10;1.00;;;;;;;31.62;37.15;97304.27;109936;1243;69228;-62
2023/09/21 09:01:08;;;;;;;1.40;0.90;;;;;;;31.90;37.63;97301.25;110035;1243;69199;-62
2023/09/21 09:03:38;;;;;;;1.20;0.90;;;;;;;32.18;37.53;97297.09;109915;1243;58965;-62
2023/09/21 09:06:10;;;;;;;1.70;1.10;;;;;;;32.68;37.26;97296.68;109961;1244;58886;-62
2023/09/21 09:08:39;;;;;;;2.10;1.20;;;;;;;32.56;36.61;97289.30;109689;1242;70529;-62
2023/09/21 09:11:31;;;;;;;1.40;1.10;;;;;;;32.48;36.07;97291.83;109924;1243;68542;-62
2023/09/21 09:14:04;;;;;;;1.80;1.10;;;;;;;32.94;36.93;97291.25;109932;1244;69303;-62
2023/09/21 09:16:33;;;;;;;1.50;1.10;;;;;;;32.83;35.59;97287.51;110042;1244;58998;-63
2023/09/21 09:19:05;;;;;;;1.20;1.10;;;;;;;33.24;35.47;97284.26;109977;1244;58955;-62
2023/09/21 09:21:35;;;;;;;2.20;1.20;;;;;;;32.62;35.70;97286.34;109898;1244;70683;-62
2023/09/21 09:24:06;;;;;;;1.80;0.90;;;;;;;33.36;35.45;97286.08;110033;1243;69364;-61
2023/09/21 09:26:36;;;;;;;3.50;1.20;;;;;;;33.54;34.38;97286.36;110034;1244;68905;-61
2023/09/21 09:29:12;;;;;;;1.40;1.10;;;;;;;33.58;33.33;97284.66;109922;1244;58957;-63
2023/09/21 09:31:43;;;;;;;1.90;1.10;;;;;;;33.51;34.10;97283.27;110090;1244;58948;-61
2023/09/21 09:34:16;;;;;;;1.70;1.20;;;;;;;33.64;33.98;97283.83;109930;1243;71137;-61
2023/09/21 09:36:52;;;;;;;1.40;1.00;;;;;;;33.51;34.20;97285.16;109939;1242;69253;-62
2023/09/21 09:39:23;;;;;;;1.40;1.00;;;;;;;33.73;34.01;97285.28;110093;1243;68681;-61
2023/09/21 09:41:55;;;;;;;2.20;1.30;;;;;;;32.76;33.23;97282.50;110066;1244;58938;-61
2023/09/21 09:44:29;;;;;;;1.20;0.80;;;;;;;32.28;34.22;97281.52;110047;1242;58942;-61
2023/09/21 09:47:03;;;;;;;1.30;0.90;;;;;;;33.22;33.88;97284.26;109807;1244;71055;-62
2023/09/21 09:49:36;;;;;;;2.30;1.40;;;;;;;33.99;32.47;97283.42;109942;1244;70216;-62
2023/09/21 09:52:10;;;;;;;1.70;1.00;;;;;;;34.00;31.33;97285.21;109876;1244;69711;-62
2023/09/21 09:54:40;;;;;;;1.60;1.10;;;;;;;34.18;31.24;97283.23;110086;1244;58903;-62
2023/09/21 09:57:13;;;;;;;1.50;1.10;;;;;;;34.09;31.06;97281.52;109962;1244;58897;-62
2023/09/21 09:59:44;;;;;;;2.50;1.50;;;;;;;34.22;30.62;97279.87;109893;1244;70458;-62
2023/09/21 10:02:18;;;;;;;2.40;1.60;;;;;;;34.42;29.94;97280.27;109843;1244;69823;-62
2023/09/21 10:04:51;;;;;;;3.10;1.70;;;;;;;34.20;29.98;97278.23;109945;1244;69293;-62
2023/09/21 10:07:20;;;;;;;3.10;1.80;;;;;;;33.79;31.50;97271.15;109907;1244;58870;-62
2023/09/21 10:09:50;;;;;;;3.30;1.70;;;;;;;33.90;30.60;97270.30;109930;1242;58909;-62
2023/09/21 10:12:23;;;;;;;2.00;1.30;;;;;;;33.19;31.70;97264.38;109741;1243;71906;-61
2023/09/21 10:14:53;;;;;;;2.50;1.60;;;;;;;33.68;31.66;97265.41;109897;1243;69049;-62
2023/09/21 10:17:27;;;;;;;2.00;1.50;;;;;;;34.27;31.06;97262.48;109898;1243;69229;-62
2023/09/21 10:20:15;;;;;;;2.20;1.80;;;;;;;34.76;30.22;97256.34;109816;1244;58926;-62
2023/09/21 10:22:44;;;;;;;3.10;2.20;;;;;;;35.08;29.24;97251.48;109988;1243;58944;-62
2023/09/21 10:25:18;;;;;;;2.70;2.10;;;;;;;34.91;28.27;97251.98;109894;1244;70571;-62
2023/09/21 10:27:49;;;;;;;3.40;2.10;;;;;;;34.69;28.98;97245.44;109837;1244;70189;-62
2023/09/21 10:30:23;;;;;;;3.30;1.90;;;;;;;34.60;28.77;97240.98;109852;1243;69299;-62
2023/09/21 10:32:53;;;;;;;3.70;2.50;;;;;;;34.06;29.48;97239.11;110014;1244;58895;-63
2023/09/21 10:35:50;;;;;;;2.20;2.00;;;;;;;33.75;30.60;97235.79;109840;1244;58866;-61
2023/09/21 10:38:20;;;;;;;3.00;2.20;;;;;;;33.68;30.41;97230.89;110046;1244;70615;-62
2023/09/21 10:40:51;;;;;;;2.70;1.80;;;;;;;34.34;30.08;97229.19;109865;1244;69837;-62
2023/09/21 10:43:38;;;;;;;2.50;2.00;;;;;;;34.64;29.83;97226.70;109931;1244;68664;-62
2023/09/21 10:46:20;;;;;;;2.30;1.70;;;;;;;34.66;29.07;97226.77;109883;1242;58933;-62
2023/09/21 10:49:05;;;;;;;3.00;1.70;;;;;;;34.66;28.97;97223.28;110057;1243;58898;-63
2023/09/21 10:51:39;;;;;;;2.70;2.00;;;;;;;35.01;29.10;97220.41;110008;1244;69756;-62
2023/09/21 10:54:12;;;;;;;2.30;1.50;;;;;;;34.59;28.11;97216.24;110023;1243;69525;-61
2023/09/21 10:56:41;;;;;;;3.30;1.80;;;;;;;34.84;28.86;97210.55;109957;1244;69659;-61
2023/09/21 10:59:12;;;;;;;2.60;1.80;;;;;;;35.07;28.71;97211.27;110019;1244;59371;-61
2023/09/21 11:01:41;;;;;;;2.10;1.60;;;;;;;35.76;28.31;97208.05;109831;1242;58897;-61
2023/09/21 11:04:11;;;;;;;2.00;1.40;;;;;;;35.85;28.07;97202.88;109879;1244;69869;-61
2023/09/21 11:06:41;;;;;;;1.40;1.30;;;;;;;36.65;28.17;97200.38;110026;1244;69112;-61
2023/09/21 11:09:10;;;;;;;3.00;2.00;;;;;;;36.86;27.27;97193.63;109906;1244;69686;-61
2023/09/21 11:11:42;;;;;;;3.80;1.80;;;;;;;37.14;26.64;97190.70;110067;1244;58945;-61
2023/09/21 11:14:11;;;;;;;3.30;2.20;;;;;;;37.01;26.20;97189.08;110054;1244;58855;-61
2023/09/21 11:16:41;;;;;;;2.20;1.40;;;;;;;36.53;26.46;97186.76;109877;1243;71006;-60
2023/09/21 11:19:10;;;;;;;3.00;2.20;;;;;;;36.36;26.79;97176.13;110023;1244;69659;-62
2023/09/21 11:21:42;;;;;;;2.20;1.80;;;;;;;36.43;27.47;97177.71;109996;1243;70058;-63
2023/09/21 11:24:12;;;;;;;3.10;1.70;;;;;;;36.46;26.37;97172.89;110071;1244;58881;-62
2023/09/21 11:26:54;;;;;;;3.60;1.70;;;;;;;37.22;25.97;97175.52;109949;1243;58894;-62
2023/09/21 11:29:26;;;;;;;3.80;1.90;;;;;;;37.21;25.73;97170.15;110059;1242;71097;-61
2023/09/21 11:31:55;;;;;;;2.70;1.70;;;;;;;36.98;25.21;97170.41;110093;1244;69835;-62
2023/09/21 11:34:25;;;;;;;1.50;1.10;;;;;;;36.46;25.13;97168.49;109929;1244;69687;-61
2023/09/21 11:36:54;;;;;;;1.60;1.30;;;;;;;36.40;25.42;97164.25;109975;1244;58875;-61
2023/09/21 11:39:27;;;;;;;3.20;1.90;;;;;;;35.99;25.86;97163.45;109944;1244;58887;-60
2023/09/21 11:41:57;;;;;;;3.10;1.80;;;;;;;36.32;25.51;97163.27;110085;1244;70620;-63
2023/09/21 11:44:28;;;;;;;2.70;2.00;;;;;;;36.27;25.96;97161.88;110091;1244;69300;-61
2023/09/21 11:46:58;;;;;;;2.40;1.70;;;;;;;36.17;25.99;97156.27;110044;1244;69326;-61